Hovedside
METAR-TAF:

METAR-TAF

Lufthavner :

Sumburgh, Shetlandsøyene, Skottland

breddegrad: 59-53N, lengdegrad: 001-18W, høyde over havet: 5 m

Gjeldene værobservasjon

Denne rapporten ble laget for 17 minutter siden, klokken 23:50 UTC
Vind 14 kt fra Nordøst
Temperatur 12°C
Luftfuktighet 88%
Trykk 998 hPa
Sikt 10 km eller mer

METAR: EGPB 152350Z AUTO 04014KT 9999 NCD 12/10 Q0998

Tid: 01:07 (00:07 UTC)

Varsel

Denne rapporten ble laget for 1 time og 10 minutter siden, klokken 22:57 UTC
Varsel gyldig fra 16. klokken 00 UTC til 16. klokken 09 UTC
Vind 12 kt fra Nordøst
Sikt 10 km eller mer
Få skyer i en høyde av 4000 ft
Sannsynlighet 40% :
Midlertidig
fra 16. klokken 00 UTC til 16. klokken 09 UTC
Vind 15 kt fra Nord-nordøst med vindkast opp mot 25 kt

TAF: EGPB 152257Z 1600/1609 05012KT 9999 FEW040 PROB40 TEMPO 1600/1609 03015G25KT

Værobservasjoner og værvarsel for over 4000 flyplasser (METAR- og TAF-rapporter).

Tilgjengelige stasjoner er representert av de røde og gule prikkene på kartet.

Hold musepekeren over prikken for å se navnet på stasjonen.

Klikk så for å se værobservasjoner og -varsler.

For å forandre kartet kan du klikke på den grønne knappen med svart kryss for å zoome inn, på den grønne knappen med strek for å zoome ut, eller på de grønne pilene for å se tilstøtende kart.


METAR-TAF: